createdAt,value
2018-11-14T00:01:11.920Z,5.60
2018-11-14T00:03:40.248Z,5.42
2018-11-14T00:06:08.607Z,5.70
2018-11-14T00:08:36.991Z,5.90
2018-11-14T00:11:05.650Z,6.30
2018-11-14T00:13:33.960Z,5.70
2018-11-14T00:16:02.290Z,5.50
2018-11-14T00:18:31.934Z,6.20
2018-11-14T00:21:00.246Z,6.47
2018-11-14T00:23:28.564Z,6.53
2018-11-14T00:25:56.903Z,5.50
2018-11-14T00:28:25.267Z,6.00
2018-11-14T00:30:53.610Z,6.83
2018-11-14T00:33:21.926Z,5.20
2018-11-14T00:35:50.250Z,5.70
2018-11-14T00:38:18.596Z,5.80
2018-11-14T00:40:46.967Z,6.00
2018-11-14T00:43:15.270Z,4.97
2018-11-14T00:45:43.727Z,5.20
2018-11-14T00:48:12.005Z,7.50
2018-11-14T00:50:40.390Z,6.33
2018-11-14T00:53:08.685Z,6.90
2018-11-14T00:55:37.030Z,4.80
2018-11-14T00:58:05.612Z,6.10
2018-11-14T01:00:33.900Z,6.43
2018-11-14T01:03:02.237Z,5.90
2018-11-14T01:05:30.585Z,7.70
2018-11-14T01:07:58.884Z,6.57
2018-11-14T01:10:27.265Z,6.90
2018-11-14T01:12:55.833Z,5.70
2018-11-14T01:15:24.173Z,7.27
2018-11-14T01:17:52.518Z,6.97
2018-11-14T01:20:22.437Z,5.83
2018-11-14T01:22:51.127Z,6.70
2018-11-14T01:25:20.661Z,13.90
2018-11-14T01:27:49.130Z,7.80
2018-11-14T01:30:21.608Z,5.70
2018-11-14T01:32:51.274Z,6.37
2018-11-14T01:35:19.875Z,7.40
2018-11-14T01:37:48.391Z,6.80
2018-11-14T01:40:19.363Z,7.97
2018-11-14T01:42:48.798Z,7.00
2018-11-14T01:45:17.159Z,8.43
2018-11-14T01:47:46.434Z,7.17
2018-11-14T01:50:14.712Z,6.70
2018-11-14T01:52:42.969Z,7.10
2018-11-14T01:55:14.115Z,5.87
2018-11-14T01:57:42.560Z,5.23
2018-11-14T02:00:15.680Z,6.30
2018-11-14T02:02:44.022Z,6.47
2018-11-14T02:05:13.853Z,6.40
2018-11-14T02:07:42.183Z,6.27
2018-11-14T02:10:12.567Z,7.37
2018-11-14T02:12:41.439Z,7.00
2018-11-14T02:15:11.865Z,7.00
2018-11-14T02:17:41.417Z,8.67
2018-11-14T02:20:10.448Z,6.33
2018-11-14T02:22:38.932Z,6.90
2018-11-14T02:25:08.405Z,7.00
2018-11-14T02:27:36.735Z,6.60
2018-11-14T02:30:07.619Z,7.27
2018-11-14T02:32:36.045Z,5.80
2018-11-14T02:35:04.552Z,7.03
2018-11-14T02:37:32.911Z,7.37
2018-11-14T02:40:01.303Z,7.03
2018-11-14T02:42:29.632Z,6.20
2018-11-14T02:44:57.954Z,7.97
2018-11-14T02:47:26.404Z,6.40
2018-11-14T02:49:54.702Z,7.33
2018-11-14T02:52:23.144Z,6.73
2018-11-14T02:54:51.497Z,7.17
2018-11-14T02:57:19.928Z,6.47
2018-11-14T02:59:48.246Z,6.67
2018-11-14T03:02:16.600Z,7.33
2018-11-14T03:04:44.930Z,7.37
2018-11-14T03:07:13.245Z,9.27
2018-11-14T03:09:41.565Z,18.20
2018-11-14T03:12:09.902Z,8.67
2018-11-14T03:14:38.193Z,7.70
2018-11-14T03:17:06.586Z,6.93
2018-11-14T03:19:35.077Z,7.97
2018-11-14T03:22:03.489Z,6.62
2018-11-14T03:24:31.816Z,7.30
2018-11-14T03:27:00.227Z,7.20
2018-11-14T03:29:28.729Z,8.17
2018-11-14T03:31:57.039Z,7.20
2018-11-14T03:34:25.357Z,7.43
2018-11-14T03:36:53.655Z,7.87
2018-11-14T03:39:21.936Z,21.10
2018-11-14T03:41:50.447Z,11.07
2018-11-14T03:44:18.750Z,6.90
2018-11-14T03:46:47.070Z,7.43
2018-11-14T03:49:15.367Z,6.70
2018-11-14T03:51:43.696Z,6.50
2018-11-14T03:54:12.081Z,6.30
2018-11-14T03:56:40.462Z,7.37
2018-11-14T03:59:08.896Z,7.50
2018-11-14T04:01:37.199Z,7.67
2018-11-14T04:04:06.015Z,8.67
2018-11-14T04:06:34.319Z,6.55
2018-11-14T04:09:02.667Z,6.73
2018-11-14T04:11:31.022Z,6.95
2018-11-14T04:13:59.416Z,7.22
2018-11-14T04:16:27.754Z,7.60
2018-11-14T04:18:56.403Z,6.83
2018-11-14T04:21:24.705Z,7.60
2018-11-14T04:23:52.990Z,7.87
2018-11-14T04:26:21.276Z,8.47
2018-11-14T04:28:49.592Z,9.47
2018-11-14T04:31:17.874Z,9.60
2018-11-14T04:33:46.211Z,9.10
2018-11-14T04:36:14.522Z,8.00
2018-11-14T04:38:42.851Z,8.67
2018-11-14T04:41:11.782Z,9.73
2018-11-14T04:43:40.098Z,9.80
2018-11-14T04:46:08.387Z,8.63
2018-11-14T04:48:36.683Z,8.00
2018-11-14T04:51:05.590Z,8.83
2018-11-14T04:53:33.990Z,8.37
2018-11-14T04:56:02.283Z,8.33
2018-11-14T04:58:33.598Z,7.73
2018-11-14T05:01:01.919Z,7.93
2018-11-14T05:03:30.362Z,7.70
2018-11-14T05:05:58.674Z,8.65
2018-11-14T05:08:26.983Z,8.80
2018-11-14T05:10:55.302Z,7.40
2018-11-14T05:13:23.694Z,8.90
2018-11-14T05:15:52.062Z,8.17
2018-11-14T05:18:20.442Z,7.83
2018-11-14T05:20:48.783Z,9.20
2018-11-14T05:23:17.186Z,10.93
2018-11-14T05:25:45.738Z,9.70
2018-11-14T05:28:14.102Z,9.83
2018-11-14T05:30:43.443Z,9.50
2018-11-14T05:33:11.796Z,9.27
2018-11-14T05:35:40.105Z,9.47
2018-11-14T05:38:08.482Z,10.60
2018-11-14T05:40:36.854Z,9.00
2018-11-14T05:43:05.397Z,12.27
2018-11-14T05:45:33.767Z,12.00
2018-11-14T05:48:02.205Z,10.77
2018-11-14T05:50:30.538Z,10.03
2018-11-14T05:52:58.940Z,9.10
2018-11-14T05:55:27.297Z,9.77
2018-11-14T05:57:58.200Z,8.57
2018-11-14T06:00:30.560Z,8.40
2018-11-14T06:02:59.934Z,9.70
2018-11-14T06:05:28.406Z,9.45
2018-11-14T06:07:57.476Z,9.30
2018-11-14T06:10:25.906Z,8.47
2018-11-14T06:12:54.264Z,10.60
2018-11-14T06:15:23.279Z,9.30
2018-11-14T06:17:52.917Z,10.03
2018-11-14T06:20:22.262Z,10.77
2018-11-14T06:22:51.322Z,10.07
2018-11-14T06:25:32.515Z,9.50
2018-11-14T06:28:01.994Z,9.30
2018-11-14T06:30:32.690Z,10.90
2018-11-14T06:33:07.200Z,9.37
2018-11-14T06:35:35.525Z,10.10
2018-11-14T06:38:03.872Z,11.00
2018-11-14T06:40:33.119Z,9.70
2018-11-14T06:43:01.717Z,9.20
2018-11-14T06:45:31.391Z,9.63
2018-11-14T06:48:01.989Z,10.57
2018-11-14T06:50:35.233Z,10.10
2018-11-14T06:53:08.607Z,9.80
2018-11-14T06:55:40.344Z,8.80
2018-11-14T06:58:09.002Z,10.40
2018-11-14T07:00:37.291Z,10.10
2018-11-14T07:03:10.653Z,10.30
2018-11-14T07:05:43.166Z,9.77
2018-11-14T07:10:44.911Z,10.13
2018-11-14T07:13:13.912Z,10.30
2018-11-14T07:15:45.512Z,11.00
2018-11-14T07:18:18.786Z,10.48
2018-11-14T07:20:47.725Z,12.00
2018-11-14T07:23:16.733Z,10.93
2018-11-14T07:25:49.921Z,11.12
2018-11-14T07:28:21.393Z,9.97
2018-11-14T07:30:55.270Z,9.83
2018-11-14T07:33:28.458Z,10.03
2018-11-14T07:35:57.081Z,9.60
2018-11-14T07:41:25.495Z,10.88
2018-11-14T07:43:54.119Z,10.00
2018-11-14T07:46:23.139Z,9.67
2018-11-14T07:48:56.578Z,11.30
2018-11-14T07:51:29.457Z,9.27
2018-11-14T07:54:04.297Z,9.63
2018-11-14T07:56:39.004Z,10.45
2018-11-14T07:59:11.233Z,9.73
2018-11-14T08:01:45.135Z,10.50
2018-11-14T08:04:15.833Z,9.18
2018-11-14T08:06:44.451Z,10.40
2018-11-14T08:09:13.785Z,9.93
2018-11-14T08:11:49.358Z,9.43
2018-11-14T08:14:22.510Z,8.80
2018-11-14T08:16:54.880Z,8.87
2018-11-14T08:19:27.617Z,9.80
2018-11-14T08:21:55.940Z,9.23
2018-11-14T08:24:24.234Z,9.73
2018-11-14T08:26:56.180Z,8.38
2018-11-14T08:29:29.562Z,8.27
2018-11-14T08:34:30.815Z,7.53
2018-11-14T08:36:59.697Z,8.17
2018-11-14T08:39:31.794Z,9.20
2018-11-14T08:42:04.714Z,9.67
2018-11-14T08:44:33.030Z,9.27
2018-11-14T08:47:01.362Z,8.50
2018-11-14T08:49:33.094Z,8.95
2018-11-14T08:52:06.444Z,8.33
2018-11-14T08:54:39.564Z,8.80
2018-11-14T08:57:07.867Z,8.60
2018-11-14T08:59:36.222Z,9.43
2018-11-14T09:02:08.626Z,8.67
2018-11-14T09:04:41.608Z,8.15
2018-11-14T09:07:10.728Z,8.43
2018-11-14T09:09:42.602Z,8.60
2018-11-14T09:12:11.153Z,20.62
2018-11-14T09:17:19.002Z,8.43
2018-11-14T09:19:50.871Z,8.93
2018-11-14T09:22:20.964Z,9.20
2018-11-14T09:24:51.587Z,9.40
2018-11-14T09:27:21.135Z,12.10
2018-11-14T09:29:54.341Z,10.67
2018-11-14T09:32:27.485Z,10.63
2018-11-14T09:35:00.389Z,10.23
2018-11-14T09:37:28.932Z,8.87
2018-11-14T09:39:58.107Z,10.70
2018-11-14T09:42:30.894Z,11.77
2018-11-14T09:45:03.743Z,11.88
2018-11-14T09:47:35.906Z,10.87
2018-11-14T09:50:05.617Z,10.30
2018-11-14T09:52:34.068Z,11.20
2018-11-14T09:55:07.777Z,9.50
2018-11-14T09:57:39.869Z,9.58
2018-11-14T10:00:14.688Z,7.23
2018-11-14T10:02:48.701Z,8.50
2018-11-14T10:05:22.095Z,9.65
2018-11-14T10:07:55.253Z,9.80
2018-11-14T10:10:28.218Z,9.13
2018-11-14T10:12:56.531Z,9.47
2018-11-14T10:15:25.180Z,9.80
2018-11-14T10:17:56.933Z,9.83
2018-11-14T10:20:29.804Z,9.30
2018-11-14T10:22:58.295Z,8.30
2018-11-14T10:25:26.984Z,10.17
2018-11-14T10:27:59.372Z,9.37
2018-11-14T10:30:32.447Z,8.87
2018-11-14T10:33:06.895Z,9.67
2018-11-14T10:35:35.233Z,9.63
2018-11-14T10:38:03.639Z,8.20
2018-11-14T10:40:32.187Z,8.88
2018-11-14T10:43:00.564Z,7.13
2018-11-14T10:45:29.051Z,10.03
2018-11-14T10:48:01.632Z,9.43
2018-11-14T10:50:35.240Z,10.20
2018-11-14T10:53:07.355Z,11.05
2018-11-14T10:55:35.853Z,9.70
2018-11-14T10:58:04.390Z,10.97
2018-11-14T11:00:43.688Z,11.60
2018-11-14T11:03:17.468Z,10.80
2018-11-14T11:05:51.492Z,9.90
2018-11-14T11:09:29.146Z,10.30
2018-11-14T11:12:03.092Z,9.93
2018-11-14T11:14:36.158Z,11.87
2018-11-14T11:17:10.018Z,10.82
2018-11-14T11:19:38.744Z,10.83
2018-11-14T11:22:11.866Z,10.73
2018-11-14T11:24:45.097Z,12.60
2018-11-14T11:27:13.658Z,12.40
2018-11-14T11:29:42.362Z,13.00
2018-11-14T11:32:13.621Z,11.30
2018-11-14T11:34:46.472Z,10.73
2018-11-14T11:37:15.919Z,11.60
2018-11-14T11:39:46.138Z,11.73
2018-11-14T11:42:16.471Z,11.24
2018-11-14T11:44:49.658Z,12.67
2018-11-14T11:47:23.170Z,10.50
2018-11-14T11:49:55.968Z,11.03
2018-11-14T11:52:29.154Z,10.50
2018-11-14T11:54:57.536Z,10.20
2018-11-14T11:57:25.979Z,9.63
2018-11-14T11:59:59.058Z,11.57
2018-11-14T12:02:31.986Z,10.20
2018-11-14T12:05:05.366Z,12.03
2018-11-14T12:10:10.470Z,9.70
2018-11-14T12:12:42.799Z,7.45
2018-11-14T12:15:14.029Z,9.23
2018-11-14T12:17:43.566Z,7.40
2018-11-14T12:20:16.634Z,8.50
2018-11-14T12:22:49.370Z,8.10
2018-11-14T12:27:50.848Z,8.17
2018-11-14T12:30:19.223Z,7.60
2018-11-14T12:32:53.495Z,7.53
2018-11-14T12:35:21.975Z,6.50
2018-11-14T12:37:50.158Z,7.27
2018-11-14T12:40:18.545Z,7.58
2018-11-14T12:42:47.022Z,6.67
2018-11-14T12:45:16.500Z,6.73
2018-11-14T12:47:46.473Z,7.63
2018-11-14T12:50:20.006Z,6.90
2018-11-14T12:52:50.699Z,5.67
2018-11-14T12:55:19.860Z,5.53
2018-11-14T12:57:48.321Z,6.37
2018-11-14T13:00:23.182Z,6.23
2018-11-14T13:02:56.634Z,5.60
2018-11-14T13:05:29.941Z,4.67
2018-11-14T13:08:03.001Z,6.00
2018-11-14T13:10:31.392Z,5.42
2018-11-14T13:13:00.150Z,4.77
2018-11-14T13:15:32.279Z,5.60
2018-11-14T13:18:05.329Z,5.73
2018-11-14T13:20:38.666Z,5.80
2018-11-14T13:23:08.035Z,4.80
2018-11-14T13:25:36.842Z,5.93
2018-11-14T13:28:07.397Z,5.17
2018-11-14T13:30:44.126Z,5.37
2018-11-14T13:33:15.420Z,5.50
2018-11-14T13:35:50.910Z,4.97
2018-11-14T13:38:23.254Z,5.60
2018-11-14T13:40:56.446Z,5.37
2018-11-14T13:46:20.348Z,5.50
2018-11-14T13:48:52.519Z,4.67
2018-11-14T13:51:21.913Z,4.67
2018-11-14T13:53:52.530Z,4.03
2018-11-14T13:56:23.113Z,5.47
2018-11-14T13:58:56.615Z,4.27
2018-11-14T14:01:29.733Z,4.90
2018-11-14T14:04:03.909Z,4.65
2018-11-14T14:06:32.290Z,4.13
2018-11-14T14:09:00.659Z,4.33
2018-11-14T14:11:32.920Z,4.60
2018-11-14T14:14:07.625Z,4.47
2018-11-14T14:16:41.448Z,4.60
2018-11-14T14:19:15.384Z,4.33
2018-11-14T14:21:48.572Z,3.70
2018-11-14T14:24:22.255Z,4.20
2018-11-14T14:26:50.706Z,4.47
2018-11-14T14:29:19.059Z,4.37
2018-11-14T14:31:47.467Z,4.00
2018-11-14T14:34:15.886Z,4.10
2018-11-14T14:36:44.478Z,4.93
2018-11-14T14:39:16.694Z,4.20
2018-11-14T14:41:46.538Z,4.70
2018-11-14T14:44:14.877Z,4.70
2018-11-14T14:46:46.958Z,4.45
2018-11-14T14:49:19.525Z,4.73
2018-11-14T14:51:53.049Z,4.75
2018-11-14T14:54:27.490Z,4.80
2018-11-14T14:57:00.273Z,4.30
2018-11-14T15:02:02.116Z,4.93
2018-11-14T15:04:30.872Z,4.60
2018-11-14T15:07:03.066Z,4.77
2018-11-14T15:09:36.135Z,4.87
2018-11-14T15:12:05.148Z,4.80
2018-11-14T15:14:33.947Z,5.03
2018-11-14T15:17:06.218Z,4.73
2018-11-14T15:19:38.094Z,5.20
2018-11-14T15:22:11.237Z,4.33
2018-11-14T15:24:39.863Z,4.70
2018-11-14T15:27:09.623Z,4.40
2018-11-14T15:29:40.017Z,4.90
2018-11-14T15:32:13.579Z,4.23
2018-11-14T15:34:43.596Z,5.20
2018-11-14T15:37:12.253Z,4.92
2018-11-14T15:42:30.896Z,4.80
2018-11-14T15:45:04.521Z,4.87
2018-11-14T15:47:36.271Z,4.60
2018-11-14T15:50:11.667Z,4.37
2018-11-14T15:52:40.713Z,4.40
2018-11-14T15:55:11.065Z,5.03
2018-11-14T15:57:40.510Z,5.90
2018-11-14T16:00:18.645Z,4.43
2018-11-14T16:02:49.499Z,4.30
2018-11-14T16:05:24.019Z,4.53
2018-11-14T16:07:58.336Z,4.60
2018-11-14T16:10:32.684Z,4.53
2018-11-14T16:13:06.517Z,5.03
2018-11-14T16:15:39.046Z,6.47
2018-11-14T16:18:12.559Z,11.77
2018-11-14T16:20:41.855Z,6.63
2018-11-14T16:23:11.453Z,5.57
2018-11-14T16:25:43.196Z,5.50
2018-11-14T16:28:14.746Z,6.40
2018-11-14T16:30:50.654Z,5.70
2018-11-14T16:33:22.594Z,6.13
2018-11-14T16:35:55.465Z,6.40
2018-11-14T16:38:23.843Z,5.97
2018-11-14T16:40:52.294Z,6.37
2018-11-14T16:43:24.474Z,6.17
2018-11-14T16:45:58.885Z,6.73
2018-11-14T16:48:32.134Z,8.10
2018-11-14T16:51:05.433Z,5.80
2018-11-14T16:53:38.797Z,5.80
2018-11-14T16:56:07.294Z,7.53
2018-11-14T16:58:35.671Z,6.70
2018-11-14T17:01:08.034Z,7.03
2018-11-14T17:03:41.261Z,7.60
2018-11-14T17:06:10.904Z,5.90
2018-11-14T17:08:40.087Z,6.20
2018-11-14T17:11:10.015Z,11.10
2018-11-14T17:13:42.804Z,7.03
2018-11-14T17:16:16.015Z,6.20
2018-11-14T17:18:44.983Z,7.60
2018-11-14T17:21:13.866Z,7.80
2018-11-14T17:23:44.254Z,7.73
2018-11-14T17:26:17.738Z,7.87
2018-11-14T17:28:51.725Z,7.57
2018-11-14T17:33:53.576Z,8.10
2018-11-14T17:36:21.942Z,7.75
2018-11-14T17:38:50.343Z,10.97
2018-11-14T17:41:18.721Z,10.43
2018-11-14T17:43:47.322Z,10.83
2018-11-14T17:46:18.417Z,9.47
2018-11-14T17:48:47.409Z,9.10
2018-11-14T17:51:15.798Z,10.50
2018-11-14T17:53:44.496Z,11.63
2018-11-14T17:56:12.871Z,10.43
2018-11-14T17:58:41.211Z,10.63
2018-11-14T18:01:09.577Z,10.40
2018-11-14T18:03:37.892Z,11.53
2018-11-14T18:06:06.249Z,10.57
2018-11-14T18:08:34.635Z,10.73
2018-11-14T18:11:03.113Z,9.77
2018-11-14T18:13:31.479Z,11.80
2018-11-14T18:15:59.856Z,13.47
2018-11-14T18:18:28.708Z,12.80
2018-11-14T18:20:58.485Z,13.27
2018-11-14T18:23:26.893Z,11.97
2018-11-14T18:25:55.189Z,13.33
2018-11-14T18:28:23.514Z,12.60
2018-11-14T18:30:51.862Z,11.93
2018-11-14T18:33:20.365Z,14.30
2018-11-14T18:35:48.713Z,22.60
2018-11-14T18:38:17.194Z,14.50
2018-11-14T18:40:45.532Z,49.37
2018-11-14T18:43:13.960Z,24.30
2018-11-14T18:45:42.373Z,13.27
2018-11-14T18:48:10.852Z,10.87
2018-11-14T18:50:39.323Z,42.00
2018-11-14T18:53:07.661Z,14.13
2018-11-14T18:55:36.249Z,13.00
2018-11-14T18:58:05.880Z,14.23
2018-11-14T19:00:34.968Z,12.90
2018-11-14T19:03:03.441Z,13.80
2018-11-14T19:05:31.973Z,13.70
2018-11-14T19:08:00.421Z,14.37
2018-11-14T19:10:31.237Z,15.57
2018-11-14T19:12:59.730Z,15.90
2018-11-14T19:15:29.816Z,15.32
2018-11-14T19:17:58.393Z,18.60
2018-11-14T19:20:28.184Z,18.03
2018-11-14T19:22:57.388Z,16.30
2018-11-14T19:25:27.604Z,19.00
2018-11-14T19:27:56.083Z,20.20
2018-11-14T19:30:25.928Z,19.73
2018-11-14T19:32:54.969Z,22.00
2018-11-14T19:35:23.354Z,20.50
2018-11-14T19:37:52.759Z,20.43
2018-11-14T19:40:22.515Z,22.90
2018-11-14T19:42:52.625Z,21.57
2018-11-14T19:45:23.626Z,21.97
2018-11-14T19:47:52.022Z,22.57
2018-11-14T19:50:21.467Z,21.50
2018-11-14T19:52:50.299Z,22.60
2018-11-14T19:55:20.731Z,21.95
2018-11-14T19:57:50.125Z,22.33
2018-11-14T20:00:24.130Z,21.57
2018-11-14T20:02:52.479Z,19.80
2018-11-14T20:05:21.618Z,19.67
2018-11-14T20:07:50.083Z,20.80
2018-11-14T20:10:21.681Z,20.30
2018-11-14T20:12:50.526Z,18.40
2018-11-14T20:15:21.526Z,20.40
2018-11-14T20:17:50.355Z,19.10
2018-11-14T20:20:23.260Z,18.33
2018-11-14T20:22:51.633Z,17.67
2018-11-14T20:25:20.034Z,19.40
2018-11-14T20:27:48.489Z,19.60
2018-11-14T20:30:19.773Z,20.53
2018-11-14T20:32:49.058Z,19.67
2018-11-14T20:35:18.638Z,20.43
2018-11-14T20:37:48.323Z,19.73
2018-11-14T20:40:18.053Z,20.03
2018-11-14T20:42:47.336Z,21.30
2018-11-14T20:45:17.236Z,21.40
2018-11-14T20:47:45.576Z,21.20
2018-11-14T20:50:16.320Z,20.50
2018-11-14T20:52:46.321Z,22.60
2018-11-14T20:55:14.886Z,23.10
2018-11-14T20:57:43.746Z,20.70
2018-11-14T21:00:17.438Z,21.10
2018-11-14T21:02:46.052Z,23.47
2018-11-14T21:05:14.434Z,22.63
2018-11-14T21:07:43.451Z,21.90
2018-11-14T21:10:13.939Z,24.50
2018-11-14T21:12:42.266Z,23.40
2018-11-14T21:15:13.281Z,23.07
2018-11-14T21:17:41.710Z,23.75
2018-11-14T21:20:11.485Z,25.03
2018-11-14T21:22:40.777Z,22.70
2018-11-14T21:25:10.773Z,24.97
2018-11-14T21:27:40.246Z,25.87
2018-11-14T21:30:10.254Z,25.50
2018-11-14T21:32:39.430Z,28.40
2018-11-14T21:35:10.736Z,27.97
2018-11-14T21:37:39.314Z,26.17
2018-11-14T21:40:08.874Z,28.40
2018-11-14T21:42:37.518Z,27.97
2018-11-14T21:45:07.667Z,27.03
2018-11-14T21:47:41.475Z,28.23
2018-11-14T21:50:10.084Z,26.50
2018-11-14T21:52:38.597Z,29.77
2018-11-14T21:55:08.107Z,27.80
2018-11-14T21:57:36.562Z,28.90
2018-11-14T22:00:07.693Z,27.47
2018-11-14T22:02:36.140Z,29.00
2018-11-14T22:05:04.909Z,28.47
2018-11-14T22:07:33.969Z,29.18
2018-11-14T22:10:02.350Z,29.60
2018-11-14T22:12:30.808Z,28.30
2018-11-14T22:14:59.350Z,29.03
2018-11-14T22:17:27.786Z,29.20
2018-11-14T22:19:56.272Z,28.00
2018-11-14T22:22:24.786Z,28.67
2018-11-14T22:24:53.169Z,30.67
2018-11-14T22:27:21.546Z,27.83
2018-11-14T22:29:49.972Z,29.30
2018-11-14T22:32:18.747Z,28.77
2018-11-14T22:34:47.224Z,29.47
2018-11-14T22:37:15.734Z,29.60
2018-11-14T22:39:44.086Z,29.03
2018-11-14T22:42:12.410Z,28.47
2018-11-14T22:44:40.781Z,27.83
2018-11-14T22:47:09.105Z,28.23
2018-11-14T22:49:37.457Z,29.40
2018-11-14T22:52:05.809Z,28.87
2018-11-14T22:54:35.050Z,30.43
2018-11-14T22:57:04.850Z,27.70
2018-11-14T22:59:33.166Z,25.60
2018-11-14T23:02:01.616Z,28.60
2018-11-14T23:04:29.969Z,25.50
2018-11-14T23:06:58.386Z,26.95
2018-11-14T23:09:26.717Z,27.83
2018-11-14T23:11:55.092Z,29.30
2018-11-14T23:14:23.414Z,26.43
2018-11-14T23:16:51.937Z,29.63
2018-11-14T23:19:20.378Z,30.10
2018-11-14T23:21:48.949Z,28.87
2018-11-14T23:24:17.273Z,29.87
2018-11-14T23:26:45.598Z,28.20
2018-11-14T23:29:13.942Z,29.70
2018-11-14T23:31:42.306Z,28.63
2018-11-14T23:34:10.726Z,29.07
2018-11-14T23:36:39.075Z,27.67
2018-11-14T23:39:10.168Z,27.67
2018-11-14T23:41:38.625Z,26.80
2018-11-14T23:44:07.005Z,29.10
2018-11-14T23:46:36.350Z,29.03
2018-11-14T23:49:04.842Z,28.13
2018-11-14T23:51:34.929Z,26.53
2018-11-14T23:54:03.341Z,29.60
2018-11-14T23:56:31.692Z,28.60
2018-11-14T23:59:00.088Z,28.00
